map of ETNT home
ETNT - Airport
Location
City:  Wittmund, Lower Saxony, Germany
Name:Wittmundhafen
ICAO:ETNT

Details
Type:Airport (Flugplatz, Airfield)
Use:Military
Latitude:5332'53"N (53.547917)
Longitude:740'03"E (7.667400)
Elevation:26 ft (8 m)
Variation:2.34E (WMM2015v2 magnetic declination)
0.18 annual change
Runways:1
Longest:8005 × 98 ft (2440 × 30 m), paved

Time
Time Zone:UTC+1 (DST+2)
Local Time:

Weather
METAR:ETNT 041320Z 20015G25KT 9999 SCT060 OVC090 03/M02 Q1020 BLU BLU BECMG GRN

Related Locations
Nearby:
Farthest:CHT: 11732 mi / 18881 km
Waitangi [Tuuta], CIT, NZ

Find:

   beyond  
but within

Other Information
Maps:
NOTAMs:
Links:
Sources:

  
  • flag of Germany
  • flag of Lower Saxony
  

Sectional Chart

Flight Planning
at skyvector.com

Satellite Image

Google Maps Satellite view

 

Copyright © 2004-2019 Karl L. Swartz. All rights reserved.
The Great Circle Mapper name and logo are trademarks of the Great Circle Mapper.
All other trademarks mentioned herein belong to their respective owners.
Please see credits for attibutions and further copyright information.

  Follow gcmap on Facebook Follow gcmap on Twitter GCmap on LinkedIn

hCard Microformat

Geo Microformat